Time;durP1;ratioP1;P1;durP2;ratioP2;P2;SDS_P1;SDS_P2;PMS_P1;PMS_P2;Temp;Humidity;BMP_temperature;BMP_pressure;BME280_temperature;BME280_humidity;BME280_pressure;Samples;Min_cycle;Max_cycle;Signal;HPM_P1;HPM_P2
2022/07/26 00:01:50;;;;;;;0.00;0.00;;;;;;;26.72;100.00;100726.53;2616833;54;20165;-64
2022/07/26 00:04:20;;;;;;;0.22;0.22;;;;;;;26.76;100.00;100730.47;2616878;54;20148;-64
2022/07/26 00:06:53;;;;;;;0.80;0.80;;;;;;;26.64;100.00;100724.03;2616845;54;20145;-64
2022/07/26 00:09:23;;;;;;;0.00;0.00;;;;;;;27.14;100.00;100721.03;2616753;54;20146;-64
2022/07/26 00:11:54;;;;;;;0.00;0.00;;;;;;;27.21;100.00;100716.53;2616888;50;20153;-65
2022/07/26 00:14:24;;;;;;;0.00;0.00;;;;;;;27.33;100.00;100722.09;2616859;54;20142;-66
2022/07/26 00:16:54;;;;;;;0.00;0.00;;;;;;;27.31;100.00;100719.66;2616689;47;20168;-64
2022/07/26 00:19:25;;;;;;;0.00;0.00;;;;;;;26.91;100.00;100715.19;2616640;54;20401;-66
2022/07/26 00:24:41;;;;;;;0.15;0.15;;;;;;;27.05;100.00;100714.22;2616586;47;20148;-66
2022/07/26 00:27:11;;;;;;;0.00;0.00;;;;;;;26.84;100.00;100703.72;2616511;54;20146;-66
2022/07/26 00:29:41;;;;;;;0.00;0.00;;;;;;;26.93;100.00;100703.31;2616617;54;20148;-65
2022/07/26 00:32:11;;;;;;;0.00;0.00;;;;;;;27.07;100.00;100693.56;2616890;54;20145;-65
2022/07/26 00:34:42;;;;;;;0.00;0.00;;;;;;;27.19;100.00;100696.47;2616948;54;20669;-64
2022/07/26 00:37:14;;;;;;;0.00;0.00;;;;;;;27.25;100.00;100690.31;2616715;54;20145;-64
2022/07/26 00:39:49;;;;;;;0.22;0.15;;;;;;;27.41;100.00;100688.09;2616710;54;20168;-65
2022/07/26 00:42:20;;;;;;;0.00;0.00;;;;;;;26.73;100.00;100682.91;2616618;49;20709;-65
2022/07/26 00:44:50;;;;;;;0.52;0.20;;;;;;;26.30;100.00;100690.25;2616679;54;20149;-65
2022/07/26 00:47:20;;;;;;;0.28;0.28;;;;;;;25.98;100.00;100687.13;2616555;54;20142;-65
2022/07/26 00:49:50;;;;;;;0.10;0.10;;;;;;;26.14;100.00;100683.34;2616719;54;20146;-64
2022/07/26 00:52:23;;;;;;;0.00;0.00;;;;;;;26.58;100.00;100682.22;2616404;50;20141;-64
2022/07/26 00:54:55;;;;;;;0.10;0.10;;;;;;;26.68;100.00;100686.16;2616556;54;20142;-65
2022/07/26 00:57:25;;;;;;;0.00;0.00;;;;;;;26.64;100.00;100684.91;2616363;54;20161;-65
2022/07/26 00:59:55;;;;;;;0.00;0.00;;;;;;;27.03;100.00;100686.97;2616723;39;20565;-65
2022/07/26 01:02:25;;;;;;;0.60;0.60;;;;;;;27.28;100.00;100680.06;2616464;47;20713;-64
2022/07/26 01:04:56;;;;;;;0.00;0.00;;;;;;;27.05;100.00;100682.25;2616300;54;20272;-66
2022/07/26 01:07:29;;;;;;;0.05;0.05;;;;;;;27.15;100.00;100677.38;2616905;39;20547;-64
2022/07/26 01:09:59;;;;;;;0.25;0.25;;;;;;;27.17;100.00;100670.00;2616450;54;20148;-64
2022/07/26 01:12:29;;;;;;;0.00;0.00;;;;;;;26.99;100.00;100675.09;2616320;48;20152;-64
2022/07/26 01:15:00;;;;;;;0.00;0.00;;;;;;;27.38;100.00;100674.34;2616346;47;20142;-64
2022/07/26 01:17:30;;;;;;;0.00;0.00;;;;;;;26.90;100.00;100673.59;2617052;39;20568;-64
2022/07/26 01:20:03;;;;;;;0.00;0.00;;;;;;;26.82;100.00;100673.75;2616669;54;20218;-66
2022/07/26 01:22:36;;;;;;;0.00;0.00;;;;;;;26.89;100.00;100669.28;2616626;54;20153;-65
2022/07/26 01:25:08;;;;;;;0.82;0.82;;;;;;;27.05;100.00;100665.44;2616331;54;20146;-64
2022/07/26 01:27:40;;;;;;;0.00;0.00;;;;;;;27.35;100.00;100664.94;2616476;54;20320;-64
2022/07/26 01:30:13;;;;;;;0.00;0.00;;;;;;;27.38;100.00;100671.69;2616357;54;20749;-65
2022/07/26 01:32:43;;;;;;;1.88;0.25;;;;;;;27.29;100.00;100665.72;2616406;54;20142;-64
2022/07/26 01:35:14;;;;;;;0.00;0.00;;;;;;;27.02;100.00;100664.03;2616296;54;20145;-65
2022/07/26 01:37:47;;;;;;;0.00;0.00;;;;;;;26.95;100.00;100663.19;2616329;54;20165;-65
2022/07/26 01:40:17;;;;;;;0.00;0.00;;;;;;;26.77;100.00;100661.03;2616126;54;20164;-65
2022/07/26 01:42:47;;;;;;;0.20;0.20;;;;;;;26.77;100.00;100661.03;2616405;54;20152;-64
2022/07/26 01:45:17;;;;;;;0.05;0.05;;;;;;;26.79;100.00;100658.16;2616518;39;20582;-64
2022/07/26 01:47:49;;;;;;;0.10;0.10;;;;;;;26.90;100.00;100666.44;2616372;54;20168;-64
2022/07/26 01:50:20;;;;;;;0.00;0.00;;;;;;;26.99;100.00;100664.44;2617222;52;20157;-65
2022/07/26 01:52:53;;;;;;;0.00;0.00;;;;;;;27.03;100.00;100670.16;2617322;54;20153;-65
2022/07/26 01:55:23;;;;;;;0.00;0.00;;;;;;;26.92;100.00;100652.94;2617062;47;20134;-65
2022/07/26 01:57:53;;;;;;;0.00;0.00;;;;;;;26.75;100.00;100651.59;2616805;54;20245;-66
2022/07/26 02:00:24;;;;;;;0.00;0.00;;;;;;;26.76;100.00;100666.56;2616892;54;20145;-65
2022/07/26 02:02:54;;;;;;;0.10;0.10;;;;;;;26.38;100.00;100640.34;2616966;46;20171;-64
2022/07/26 02:05:25;;;;;;;1.65;1.58;;;;;;;26.64;100.00;100655.63;2616642;54;20145;-65
2022/07/26 02:07:57;;;;;;;0.00;0.00;;;;;;;26.79;100.00;100658.16;2616765;54;20677;-65
2022/07/26 02:10:59;;;;;;;0.30;0.30;;;;;;;26.51;100.00;100663.56;2616656;54;20146;-65
2022/07/26 02:13:20;;;;;;;0.38;0.38;;;;;;;25.24;100.00;100666.31;2616729;54;20160;-65
2022/07/26 02:15:50;;;;;;;1.23;0.98;;;;;;;24.47;100.00;100664.16;2616597;54;20700;-65
2022/07/26 02:18:21;;;;;;;0.55;0.55;;;;;;;24.42;100.00;100661.22;2616381;54;20153;-65
2022/07/26 02:20:51;;;;;;;0.32;0.20;;;;;;;24.77;100.00;100666.78;2616789;54;20145;-65
2022/07/26 02:23:25;;;;;;;0.57;0.57;;;;;;;25.11;100.00;100667.03;2616802;54;20153;-65
2022/07/26 02:25:56;;;;;;;0.47;0.47;;;;;;;25.04;100.00;100660.81;2616628;54;20176;-64
2022/07/26 02:28:26;;;;;;;4.47;1.65;;;;;;;24.94;100.00;100662.94;2616749;54;20160;-72
2022/07/26 02:30:56;;;;;;;0.00;0.00;;;;;;;25.34;100.00;100662.38;2617173;39;20409;-64
2022/07/26 02:33:27;;;;;;;0.00;0.00;;;;;;;25.50;100.00;100656.81;2616816;54;20153;-65
2022/07/26 02:35:57;;;;;;;0.13;0.13;;;;;;;25.62;100.00;100657.16;2616604;54;20145;-65
2022/07/26 02:38:30;;;;;;;0.10;0.10;;;;;;;25.67;100.00;100661.91;2616609;54;20196;-65
2022/07/26 02:41:00;;;;;;;0.00;0.00;;;;;;;25.48;100.00;100653.50;2616411;54;20189;-65
2022/07/26 02:43:31;;;;;;;0.00;0.00;;;;;;;25.52;100.00;100657.47;2616717;54;20145;-65
2022/07/26 02:46:01;;;;;;;0.30;0.30;;;;;;;25.05;100.00;100662.44;2616738;54;20151;-64
2022/07/26 02:48:32;;;;;;;0.98;0.98;;;;;;;24.78;100.00;100663.94;2616809;47;20149;-65
2022/07/26 02:51:02;;;;;;;1.02;0.98;;;;;;;24.59;100.00;100660.00;2616527;47;20164;-65
2022/07/26 02:53:35;;;;;;;0.90;0.90;;;;;;;25.09;100.00;100659.25;2616647;54;20146;-65
2022/07/26 02:56:05;;;;;;;0.10;0.10;;;;;;;24.95;100.00;100656.63;2616466;54;20162;-65
2022/07/26 02:58:35;;;;;;;0.10;0.10;;;;;;;24.46;100.00;100662.50;2616714;54;20145;-65
2022/07/26 03:01:06;;;;;;;0.05;0.05;;;;;;;23.83;100.00;100664.75;2616197;54;20146;-65
2022/07/26 03:03:37;;;;;;;0.30;0.30;;;;;;;23.62;100.00;100663.59;2616878;47;20149;-65
2022/07/26 03:06:07;;;;;;;0.40;0.40;;;;;;;23.97;100.00;100666.59;2616537;54;20153;-65
2022/07/26 03:08:40;;;;;;;1.98;1.88;;;;;;;23.52;100.00;100673.59;2616747;54;20217;-65
2022/07/26 03:11:10;;;;;;;1.48;1.23;;;;;;;23.46;100.00;100669.00;2616438;54;20153;-65
2022/07/26 03:13:41;;;;;;;0.85;0.47;;;;;;;23.69;100.00;100672.47;2616621;54;20142;-65
2022/07/26 03:16:12;;;;;;;0.50;0.50;;;;;;;23.38;100.00;100666.38;2616534;51;20155;-66
2022/07/26 03:18:46;;;;;;;1.20;0.93;;;;;;;23.40;100.00;100668.84;2616945;54;20611;-66
2022/07/26 03:21:17;;;;;;;1.35;1.33;;;;;;;22.73;100.00;100677.31;2616501;54;20670;-65
2022/07/26 03:23:50;;;;;;;2.22;2.10;;;;;;;22.49;100.00;100676.53;2616947;47;20150;-65
2022/07/26 03:26:20;;;;;;;0.98;0.98;;;;;;;22.28;100.00;100683.19;2616719;39;20573;-66
2022/07/26 03:28:50;;;;;;;1.42;0.90;;;;;;;22.42;100.00;100686.97;2616829;54;20150;-66
2022/07/26 03:31:22;;;;;;;2.50;1.60;;;;;;;22.74;100.00;100684.25;2616745;54;20149;-64
2022/07/26 03:33:52;;;;;;;0.30;0.25;;;;;;;22.60;100.00;100694.66;2616905;54;20252;-65
2022/07/26 03:36:22;;;;;;;1.67;1.05;;;;;;;22.72;100.00;100691.53;2616632;47;20148;-64
2022/07/26 03:38:55;;;;;;;0.55;0.55;;;;;;;23.03;100.00;100693.41;2616609;54;20181;-64
2022/07/26 03:41:25;;;;;;;2.45;1.58;;;;;;;23.33;100.00;100690.75;2616472;54;20177;-65
2022/07/26 03:43:56;;;;;;;1.02;0.98;;;;;;;23.56;100.00;100685.47;2616660;54;20145;-64
2022/07/26 03:46:26;;;;;;;0.03;0.03;;;;;;;23.83;100.00;100685.97;2616777;54;20164;-64
2022/07/26 03:48:56;;;;;;;0.85;0.60;;;;;;;23.86;100.00;100690.91;2617954;54;20149;-65
2022/07/26 03:51:27;;;;;;;1.55;0.80;;;;;;;24.06;100.00;100694.69;2616628;54;20357;-65
2022/07/26 03:53:59;;;;;;;0.68;0.68;;;;;;;23.70;100.00;100691.84;2617620;54;20146;-65
2022/07/26 03:56:33;;;;;;;2.92;1.90;;;;;;;23.52;100.00;100691.31;2616457;54;20153;-64
2022/07/26 03:59:06;;;;;;;0.38;0.38;;;;;;;23.32;100.00;100688.25;2616626;54;20146;-64
2022/07/26 04:01:40;;;;;;;1.40;1.40;;;;;;;23.23;100.00;100691.97;2616218;54;20145;-64
2022/07/26 04:04:12;;;;;;;1.60;1.40;;;;;;;23.47;100.00;100691.81;2616032;54;20420;-65
2022/07/26 04:06:43;;;;;;;1.60;1.25;;;;;;;23.42;100.00;100694.16;2616229;54;20173;-65
2022/07/26 04:09:16;;;;;;;1.25;1.23;;;;;;;23.51;100.00;100687.81;2615898;54;20164;-65
2022/07/26 04:11:47;;;;;;;1.10;1.10;;;;;;;23.49;100.00;100689.84;2616127;54;20153;-65
2022/07/26 04:14:18;;;;;;;2.67;1.33;;;;;;;23.54;100.00;100692.78;2616372;54;20150;-65
2022/07/26 04:16:48;;;;;;;1.95;1.85;;;;;;;23.27;100.00;100680.03;2616288;51;20145;-66
2022/07/26 04:19:19;;;;;;;0.80;0.68;;;;;;;23.60;100.00;100688.59;2616594;54;20161;-64
2022/07/26 04:21:49;;;;;;;0.45;0.45;;;;;;;23.81;100.00;100685.28;2616263;54;20920;-65
2022/07/26 04:24:22;;;;;;;1.50;1.42;;;;;;;23.90;100.00;100689.53;2616195;54;20149;-66
2022/07/26 04:26:54;;;;;;;1.33;1.25;;;;;;;24.23;100.00;100681.13;2616077;54;20149;-66
2022/07/26 04:29:24;;;;;;;0.52;0.52;;;;;;;24.43;100.00;100689.41;2615967;54;20424;-65
2022/07/26 04:31:55;;;;;;;0.50;0.50;;;;;;;24.46;100.00;100682.91;2616446;54;20678;-66
2022/07/26 04:34:25;;;;;;;0.47;0.47;;;;;;;24.88;100.00;100690.22;2616512;54;20149;-66
2022/07/26 04:36:55;;;;;;;0.03;0.03;;;;;;;25.37;100.00;100687.72;2616190;47;20148;-65
2022/07/26 04:39:28;;;;;;;0.65;0.65;;;;;;;25.01;100.00;100695.69;2615578;54;20180;-66
2022/07/26 04:41:58;;;;;;;0.52;0.50;;;;;;;25.19;100.00;100693.47;2615877;54;20176;-66
2022/07/26 04:44:28;;;;;;;3.88;1.40;;;;;;;24.84;100.00;100692.38;2616213;54;20149;-65
2022/07/26 04:46:59;;;;;;;0.77;0.77;;;;;;;24.50;100.00;100697.44;2616455;54;20686;-66
2022/07/26 04:49:29;;;;;;;1.38;1.33;;;;;;;24.64;100.00;100701.91;2616655;54;20150;-66
2022/07/26 04:52:00;;;;;;;3.47;1.55;;;;;;;24.96;100.00;100700.72;2616461;54;20145;-66
2022/07/26 04:54:33;;;;;;;1.30;0.90;;;;;;;24.32;100.00;100702.25;2616673;54;20149;-66
2022/07/26 04:57:03;;;;;;;2.05;1.85;;;;;;;23.72;100.00;100700.44;2616371;46;20133;-66
2022/07/26 04:59:33;;;;;;;1.38;1.27;;;;;;;23.88;100.00;100707.44;2616574;54;20172;-65
2022/07/26 05:02:03;;;;;;;0.90;0.90;;;;;;;24.00;100.00;100704.19;2616526;54;20142;-66
2022/07/26 05:04:34;;;;;;;2.67;1.20;;;;;;;23.81;100.00;100711.78;2616573;54;20157;-66
2022/07/26 05:07:04;;;;;;;0.40;0.40;;;;;;;24.15;100.00;100709.56;2616359;54;20172;-66
2022/07/26 05:09:37;;;;;;;0.15;0.15;;;;;;;23.98;100.00;100703.53;2616464;54;20241;-66
2022/07/26 05:12:08;;;;;;;0.22;0.22;;;;;;;24.11;100.00;100710.91;2616441;54;20141;-67
2022/07/26 05:14:39;;;;;;;1.35;1.25;;;;;;;24.54;100.00;100702.22;2616370;54;20141;-67
2022/07/26 05:17:09;;;;;;;1.05;0.93;;;;;;;24.33;100.00;100696.78;2616439;54;20202;-66
2022/07/26 05:19:41;;;;;;;0.10;0.10;;;;;;;24.54;100.00;100690.75;2616534;54;20142;-66
2022/07/26 05:22:17;;;;;;;0.80;0.80;;;;;;;24.79;100.00;100696.63;2615994;54;20704;-66
2022/07/26 05:24:50;;;;;;;0.13;0.13;;;;;;;24.85;100.00;100694.06;2615445;54;20145;-65
2022/07/26 05:27:20;;;;;;;0.25;0.25;;;;;;;25.15;100.00;100689.53;2616291;54;20142;-65
2022/07/26 05:29:51;;;;;;;1.05;0.93;;;;;;;25.60;100.00;100696.38;2615261;47;20149;-66
2022/07/26 05:32:21;;;;;;;1.17;0.82;;;;;;;25.88;100.00;100683.16;2616448;47;20142;-67
2022/07/26 05:34:52;;;;;;;0.08;0.08;;;;;;;26.27;100.00;100686.16;2616700;54;20176;-67
2022/07/26 05:37:22;;;;;;;0.30;0.00;;;;;;;26.41;100.00;100682.53;2616216;47;20141;-66
2022/07/26 05:39:55;;;;;;;0.20;0.20;;;;;;;26.23;100.00;100690.22;2614901;54;20191;-65
2022/07/26 05:42:25;;;;;;;2.92;1.33;;;;;;;25.77;100.00;100689.78;2614024;54;20153;-64
2022/07/26 05:44:55;;;;;;;0.10;0.10;;;;;;;26.08;100.00;100687.59;2612689;54;20157;-67
2022/07/26 05:47:26;;;;;;;0.22;0.22;;;;;;;26.59;100.00;100678.56;2612977;54;20297;-65
2022/07/26 05:49:56;;;;;;;0.80;0.68;;;;;;;26.44;100.00;100682.13;2613000;39;20519;-65
2022/07/26 05:52:27;;;;;;;0.20;0.20;;;;;;;26.06;100.00;100680.84;2612854;47;20166;-67
2022/07/26 05:55:00;;;;;;;1.15;1.13;;;;;;;26.36;100.00;100684.94;2614087;54;20149;-65
2022/07/26 05:57:30;;;;;;;1.65;1.30;;;;;;;26.08;100.00;100682.28;2614863;39;20615;-65
2022/07/26 06:00:01;;;;;;;0.93;0.77;;;;;;;26.03;100.00;100681.22;2616010;54;20161;-65
2022/07/26 06:02:31;;;;;;;0.80;0.80;;;;;;;25.92;100.00;100690.53;2616044;54;20264;-65
2022/07/26 06:05:01;;;;;;;3.22;2.30;;;;;;;25.93;100.00;100692.19;2616101;54;20142;-64
2022/07/26 06:07:31;;;;;;;0.10;0.10;;;;;;;26.16;100.00;100683.97;2616082;54;20148;-64
2022/07/26 06:10:05;;;;;;;0.00;0.00;;;;;;;26.53;100.00;100680.97;2616137;54;20708;-64
2022/07/26 06:12:35;;;;;;;0.55;0.55;;;;;;;26.83;100.00;100678.06;2616031;54;20148;-65
2022/07/26 06:15:06;;;;;;;1.75;1.75;;;;;;;27.15;100.00;100676.56;2616137;54;20142;-65
2022/07/26 06:17:44;;;;;;;0.65;0.65;;;;;;;26.43;100.00;100669.88;2615869;54;20150;-65
2022/07/26 06:20:15;;;;;;;0.50;0.22;;;;;;;26.58;100.00;100671.56;2616360;54;20172;-66
2022/07/26 06:22:45;;;;;;;0.28;0.28;;;;;;;26.98;100.00;100670.78;2616294;54;20142;-66
2022/07/26 06:25:18;;;;;;;1.15;1.05;;;;;;;26.81;100.00;100666.75;2616131;54;20665;-66
2022/07/26 06:27:48;;;;;;;0.20;0.20;;;;;;;26.98;100.00;100660.13;2616210;47;20141;-66
2022/07/26 06:30:18;;;;;;;0.00;0.00;;;;;;;27.04;100.00;100656.66;2616123;47;20150;-65
2022/07/26 06:32:49;;;;;;;0.00;0.00;;;;;;;27.36;100.00;100663.09;2616182;54;20229;-65
2022/07/26 06:35:19;;;;;;;0.00;0.00;;;;;;;27.68;100.00;100659.69;2617037;39;20534;-65
2022/07/26 06:37:49;;;;;;;0.20;0.20;;;;;;;27.07;100.00;100660.75;2616564;54;20173;-64
2022/07/26 06:40:22;;;;;;;1.20;1.20;;;;;;;27.14;100.00;100657.09;2616880;47;20183;-65
2022/07/26 06:42:52;;;;;;;2.03;1.88;;;;;;;26.86;100.00;100665.19;2616468;54;20141;-65
2022/07/26 06:45:23;;;;;;;0.05;0.05;;;;;;;27.37;100.00;100657.53;2617388;31;20658;-65
2022/07/26 06:47:53;;;;;;;0.00;0.00;;;;;;;27.54;100.00;100665.19;2616838;54;20148;-65
2022/07/26 06:50:25;;;;;;;0.57;0.55;;;;;;;28.11;100.00;100661.94;2616849;54;20406;-66
2022/07/26 06:52:55;;;;;;;0.00;0.00;;;;;;;28.45;100.00;100656.31;2616943;54;20142;-66
2022/07/26 06:55:28;;;;;;;0.00;0.00;;;;;;;28.56;100.00;100654.88;2616884;47;20288;-65
2022/07/26 06:57:58;;;;;;;0.90;0.63;;;;;;;28.35;100.00;100656.78;2616615;54;20157;-65
2022/07/26 07:00:29;;;;;;;0.70;0.57;;;;;;;27.90;100.00;100661.09;2616828;54;20759;-65
2022/07/26 07:02:59;;;;;;;0.43;0.43;;;;;;;27.67;100.00;100649.22;2616713;54;20142;-66
2022/07/26 07:05:29;;;;;;;2.85;0.77;;;;;;;27.88;100.00;100671.16;2616906;54;20150;-66
2022/07/26 07:08:00;;;;;;;0.05;0.05;;;;;;;28.13;100.00;100662.53;2616856;54;20145;-65
2022/07/26 07:10:33;;;;;;;0.15;0.15;;;;;;;28.14;100.00;100659.69;2617641;31;20752;-65
2022/07/26 07:13:04;;;;;;;2.30;1.67;;;;;;;27.94;100.00;100653.50;2616571;54;20149;-65
2022/07/26 07:15:35;;;;;;;1.08;0.47;;;;;;;28.09;100.00;100651.47;2616615;54;20149;-64
2022/07/26 07:18:05;;;;;;;0.00;0.00;;;;;;;28.41;100.00;100654.31;2617402;39;20548;-65
2022/07/26 07:20:36;;;;;;;0.13;0.13;;;;;;;28.90;100.00;100659.06;2616815;47;20685;-65
2022/07/26 07:23:06;;;;;;;1.15;0.75;;;;;;;28.43;100.00;100655.72;2616836;39;20611;-66
2022/07/26 07:25:39;;;;;;;1.27;0.60;;;;;;;28.45;98.87;100653.66;2616712;47;20165;-66
2022/07/26 07:28:09;;;;;;;0.40;0.17;;;;;;;28.70;100.00;100656.47;2616613;54;20145;-66
2022/07/26 07:30:39;;;;;;;1.60;1.50;;;;;;;28.54;100.00;100654.25;2616554;54;20685;-66
2022/07/26 07:33:11;;;;;;;0.00;0.00;;;;;;;28.54;86.92;100638.22;2616487;54;20148;-65
2022/07/26 07:35:52;;;;;;;0.32;0.32;;;;;;;28.65;79.95;100658.94;2617080;39;20553;-65
2022/07/26 07:38:23;;;;;;;0.32;0.32;;;;;;;28.91;79.67;100650.03;2616541;47;20185;-64
2022/07/26 07:40:55;;;;;;;0.55;0.55;;;;;;;29.12;85.86;100650.53;2616481;54;20203;-65
2022/07/26 07:43:26;;;;;;;1.27;1.13;;;;;;;29.30;85.33;100649.84;2616495;47;20689;-65
2022/07/26 07:45:56;;;;;;;0.10;0.10;;;;;;;29.39;83.59;100659.25;2616570;54;20157;-66
2022/07/26 07:48:26;;;;;;;0.35;0.35;;;;;;;29.52;80.48;100647.63;2616778;54;20148;-65
2022/07/26 07:50:56;;;;;;;0.20;0.10;;;;;;;29.41;82.25;100645.66;2616831;54;20146;-66
2022/07/26 07:53:27;;;;;;;2.00;1.92;;;;;;;29.73;88.03;100645.38;2616352;47;20157;-65
2022/07/26 07:56:02;;;;;;;0.00;0.00;;;;;;;30.01;82.84;100641.50;2616590;47;20167;-65
2022/07/26 07:58:33;;;;;;;0.55;0.52;;;;;;;30.25;80.28;100639.81;2616529;54;20148;-65
2022/07/26 08:01:03;;;;;;;0.00;0.00;;;;;;;30.47;78.23;100641.03;2616768;54;20150;-65
2022/07/26 08:03:34;;;;;;;0.22;0.22;;;;;;;30.38;74.25;100639.66;2616565;54;20149;-66
2022/07/26 08:06:10;;;;;;;0.13;0.13;;;;;;;30.44;77.64;100639.63;2616767;54;20149;-65
2022/07/26 08:08:41;;;;;;;0.85;0.50;;;;;;;30.59;73.28;100634.69;2616211;54;20171;-66
2022/07/26 08:11:14;;;;;;;0.40;0.40;;;;;;;30.63;69.76;100641.25;2616416;47;20142;-66
2022/07/26 08:13:45;;;;;;;0.98;0.90;;;;;;;30.60;67.42;100631.00;2616300;54;20165;-66
2022/07/26 08:16:17;;;;;;;0.00;0.00;;;;;;;30.86;69.23;100629.81;2616499;54;20721;-66
2022/07/26 08:18:47;;;;;;;0.00;0.00;;;;;;;30.83;68.00;100626.78;2616298;54;20142;-65
2022/07/26 08:21:27;;;;;;;0.30;0.30;;;;;;;30.92;66.69;100636.97;2616378;54;20148;-66
2022/07/26 08:23:58;;;;;;;1.05;1.02;;;;;;;30.41;64.54;100631.19;2616394;54;20158;-66
2022/07/26 08:26:31;;;;;;;0.10;0.10;;;;;;;30.15;66.83;100632.28;2616240;54;20157;-65
2022/07/26 08:29:01;;;;;;;0.32;0.32;;;;;;;30.27;66.92;100622.47;2616309;54;20148;-65
2022/07/26 08:31:31;;;;;;;0.75;0.73;;;;;;;30.69;66.65;100626.16;2616682;54;20165;-66
2022/07/26 08:34:02;;;;;;;0.20;0.20;;;;;;;30.86;68.22;100629.00;2616685;47;20141;-65
2022/07/26 08:36:32;;;;;;;2.25;0.75;;;;;;;30.98;63.28;100625.31;2616847;39;20622;-66
2022/07/26 08:39:02;;;;;;;0.63;0.38;;;;;;;31.10;64.62;100628.91;2616252;47;20173;-66
2022/07/26 08:41:39;;;;;;;0.13;0.13;;;;;;;31.09;62.12;100624.56;2616527;54;20192;-66
2022/07/26 08:44:10;;;;;;;0.05;0.05;;;;;;;30.84;62.50;100629.25;2616329;47;20149;-66
2022/07/26 08:46:42;;;;;;;0.20;0.20;;;;;;;30.75;63.16;100621.72;2616500;54;20597;-66
2022/07/26 08:49:13;;;;;;;1.08;0.98;;;;;;;30.94;63.92;100626.81;2616372;54;20157;-66
2022/07/26 08:51:45;;;;;;;0.30;0.30;;;;;;;30.85;62.26;100625.53;2616665;54;20141;-66
2022/07/26 08:54:17;;;;;;;0.57;0.57;;;;;;;30.79;62.63;100634.44;2616431;47;20141;-66
2022/07/26 08:56:55;;;;;;;0.68;0.68;;;;;;;30.38;64.13;100626.25;2616360;47;20157;-66
2022/07/26 08:59:25;;;;;;;0.52;0.38;;;;;;;30.44;68.25;100626.25;2615859;54;20153;-66
2022/07/26 09:01:57;;;;;;;1.70;0.47;;;;;;;30.80;63.26;100619.19;2616411;54;20154;-65
2022/07/26 09:04:28;;;;;;;1.00;1.00;;;;;;;30.60;63.17;100622.13;2616252;54;20693;-65
2022/07/26 09:07:05;;;;;;;0.00;0.00;;;;;;;30.91;63.95;100621.09;2616278;54;20141;-65
2022/07/26 09:09:37;;;;;;;0.00;0.00;;;;;;;30.51;58.60;100621.63;2616287;54;20148;-66
2022/07/26 09:12:21;;;;;;;1.60;1.50;;;;;;;30.79;56.88;100618.38;2616310;54;20141;-65
2022/07/26 09:14:52;;;;;;;1.10;0.80;;;;;;;31.08;55.14;100619.47;2616222;54;20191;-66
2022/07/26 09:17:25;;;;;;;0.00;0.00;;;;;;;31.23;54.65;100616.34;2616497;54;20221;-67
2022/07/26 09:20:08;;;;;;;0.00;0.00;;;;;;;31.65;54.08;100612.63;2616880;39;20592;-66
2022/07/26 09:22:40;;;;;;;0.25;0.20;;;;;;;31.98;52.95;100617.38;2616294;54;20163;-66
2022/07/26 09:25:26;;;;;;;0.00;0.00;;;;;;;32.17;52.67;100610.88;2619088;39;20496;-66
2022/07/26 09:27:59;;;;;;;0.65;0.65;;;;;;;32.37;52.45;100607.81;2617251;54;20153;-65
2022/07/26 09:30:30;;;;;;;1.02;1.02;;;;;;;32.40;51.50;100604.63;2616161;54;20149;-65
2022/07/26 09:33:03;;;;;;;1.13;1.08;;;;;;;32.34;52.17;100605.59;2616848;39;20645;-66
2022/07/26 09:35:36;;;;;;;0.00;0.00;;;;;;;32.29;52.31;100592.88;2615727;47;20172;-66
2022/07/26 09:38:21;;;;;;;1.10;1.00;;;;;;;32.46;52.52;100600.97;2615777;54;20173;-66
2022/07/26 09:40:54;;;;;;;0.00;0.00;;;;;;;32.58;49.98;100595.59;2615478;54;20745;-65
2022/07/26 09:43:38;;;;;;;0.30;0.30;;;;;;;32.66;46.84;100598.72;2615612;54;20148;-67
2022/07/26 09:46:09;;;;;;;0.82;0.40;;;;;;;32.79;48.65;100585.00;2615747;47;20199;-66
2022/07/26 09:48:40;;;;;;;0.20;0.20;;;;;;;32.86;46.47;100593.72;2615857;54;20260;-66
2022/07/26 09:51:39;;;;;;;0.25;0.13;;;;;;;32.98;43.70;100587.50;2615376;54;20168;-65
2022/07/26 09:54:10;;;;;;;0.00;0.00;;;;;;;33.11;43.22;100589.88;2616227;47;20225;-66
2022/07/26 09:56:48;;;;;;;0.00;0.00;;;;;;;33.21;43.16;100585.53;2616112;54;20670;-65
2022/07/26 09:59:23;;;;;;;0.20;0.20;;;;;;;33.23;42.96;100585.28;2616080;39;20535;-66
2022/07/26 10:01:55;;;;;;;0.00;0.00;;;;;;;33.08;44.06;100579.59;2615554;54;20163;-65
2022/07/26 10:04:26;;;;;;;0.00;0.00;;;;;;;33.33;43.77;100580.06;2615757;54;20142;-65
2022/07/26 10:06:57;;;;;;;0.30;0.30;;;;;;;32.75;48.46;100575.78;2615930;39;20557;-66
2022/07/26 10:09:32;;;;;;;1.80;1.75;;;;;;;32.83;49.00;100583.47;2615715;54;20150;-67
2022/07/26 10:12:04;;;;;;;0.00;0.00;;;;;;;32.97;48.53;100572.44;2616538;47;20141;-67
2022/07/26 10:14:46;;;;;;;0.52;0.52;;;;;;;32.97;51.75;100575.13;2616093;47;20158;-66
2022/07/26 10:17:46;;;;;;;1.92;1.83;;;;;;;32.93;56.87;100572.91;2616287;54;20148;-65
2022/07/26 10:20:49;;;;;;;0.68;0.68;;;;;;;33.00;58.03;100562.00;2616313;54;20160;-67
2022/07/26 10:23:41;;;;;;;0.20;0.20;;;;;;;33.03;55.83;100568.75;2616406;54;20148;-65
2022/07/26 10:26:44;;;;;;;0.20;0.20;;;;;;;33.02;54.85;100565.25;2616831;54;20164;-65
2022/07/26 10:29:22;;;;;;;0.52;0.52;;;;;;;32.98;54.46;100560.63;2616788;54;20141;-66
2022/07/26 10:32:22;;;;;;;0.60;0.60;;;;;;;32.64;58.28;100560.53;2617071;39;20535;-67
2022/07/26 10:34:52;;;;;;;1.17;1.17;;;;;;;32.65;60.24;100558.69;2615935;54;20149;-66
2022/07/26 10:37:26;;;;;;;1.15;1.13;;;;;;;32.56;60.43;100560.06;2616845;39;20550;-66
2022/07/26 10:40:19;;;;;;;0.20;0.20;;;;;;;32.76;59.43;100555.94;2616121;47;20149;-66
2022/07/26 10:42:50;;;;;;;0.98;0.35;;;;;;;32.71;58.71;100563.06;2616121;54;20721;-66
